sensor_id;sensor_type;location;lat;lon;timestamp;temperature;humidity
8664;DHT22;4369;47.842;13.096;2022-07-23T00:01:36;23.60;99.90
8664;DHT22;4369;47.842;13.096;2022-07-23T00:04:04;23.40;99.90
8664;DHT22;4369;47.842;13.096;2022-07-23T00:06:30;23.20;99.90
8664;DHT22;4369;47.842;13.096;2022-07-23T00:08:59;22.90;99.90
8664;DHT22;4369;47.842;13.096;2022-07-23T00:11:25;22.70;99.90
8664;DHT22;4369;47.842;13.096;2022-07-23T00:13:52;22.40;99.90
8664;DHT22;4369;47.842;13.096;2022-07-23T00:16:20;22.20;99.90
8664;DHT22;4369;47.842;13.096;2022-07-23T00:18:47;22.10;99.90
8664;DHT22;4369;47.842;13.096;2022-07-23T00:21:14;22.00;99.90
8664;DHT22;4369;47.842;13.096;2022-07-23T00:23:40;21.80;99.90
8664;DHT22;4369;47.842;13.096;2022-07-23T00:26:09;21.70;99.90
8664;DHT22;4369;47.842;13.096;2022-07-23T00:28:35;21.90;99.90
8664;DHT22;4369;47.842;13.096;2022-07-23T00:31:02;22.20;99.90
8664;DHT22;4369;47.842;13.096;2022-07-23T00:33:29;22.30;99.90
8664;DHT22;4369;47.842;13.096;2022-07-23T00:35:56;22.50;99.90
8664;DHT22;4369;47.842;13.096;2022-07-23T00:38:23;22.60;99.90
8664;DHT22;4369;47.842;13.096;2022-07-23T00:40:50;22.70;99.90
8664;DHT22;4369;47.842;13.096;2022-07-23T00:43:20;22.80;99.90
8664;DHT22;4369;47.842;13.096;2022-07-23T00:45:46;22.80;99.90
8664;DHT22;4369;47.842;13.096;2022-07-23T00:48:13;22.70;99.90
8664;DHT22;4369;47.842;13.096;2022-07-23T00:50:40;22.90;99.90
8664;DHT22;4369;47.842;13.096;2022-07-23T00:53:08;22.90;99.90
8664;DHT22;4369;47.842;13.096;2022-07-23T00:55:35;22.90;99.90
8664;DHT22;4369;47.842;13.096;2022-07-23T00:58:02;22.90;99.90
8664;DHT22;4369;47.842;13.096;2022-07-23T01:00:30;22.80;99.90
8664;DHT22;4369;47.842;13.096;2022-07-23T01:02:57;22.60;99.90
8664;DHT22;4369;47.842;13.096;2022-07-23T01:05:25;22.50;99.90
8664;DHT22;4369;47.842;13.096;2022-07-23T01:07:52;22.40;99.90
8664;DHT22;4369;47.842;13.096;2022-07-23T01:10:26;22.50;99.90
8664;DHT22;4369;47.842;13.096;2022-07-23T01:12:59;22.60;99.90
8664;DHT22;4369;47.842;13.096;2022-07-23T01:15:26;22.70;99.90
8664;DHT22;4369;47.842;13.096;2022-07-23T01:17:55;22.90;99.90
8664;DHT22;4369;47.842;13.096;2022-07-23T01:20:22;22.80;99.90
8664;DHT22;4369;47.842;13.096;2022-07-23T01:22:50;22.70;99.90
8664;DHT22;4369;47.842;13.096;2022-07-23T01:25:17;22.60;99.90
8664;DHT22;4369;47.842;13.096;2022-07-23T01:27:44;22.50;99.90
8664;DHT22;4369;47.842;13.096;2022-07-23T01:30:12;22.40;99.90
8664;DHT22;4369;47.842;13.096;2022-07-23T01:32:39;22.40;99.90
8664;DHT22;4369;47.842;13.096;2022-07-23T01:35:07;22.40;99.90
8664;DHT22;4369;47.842;13.096;2022-07-23T01:37:34;22.40;99.90
8664;DHT22;4369;47.842;13.096;2022-07-23T01:40:03;22.30;99.90
8664;DHT22;4369;47.842;13.096;2022-07-23T01:42:31;22.30;99.90
8664;DHT22;4369;47.842;13.096;2022-07-23T01:44:58;22.20;99.90
8664;DHT22;4369;47.842;13.096;2022-07-23T01:47:25;22.20;99.90
8664;DHT22;4369;47.842;13.096;2022-07-23T01:49:52;22.10;99.90
8664;DHT22;4369;47.842;13.096;2022-07-23T01:52:19;22.00;99.90
8664;DHT22;4369;47.842;13.096;2022-07-23T01:54:46;22.00;99.90
8664;DHT22;4369;47.842;13.096;2022-07-23T01:57:14;22.00;99.90
8664;DHT22;4369;47.842;13.096;2022-07-23T01:59:41;21.90;99.90
8664;DHT22;4369;47.842;13.096;2022-07-23T02:02:08;21.80;99.90
8664;DHT22;4369;47.842;13.096;2022-07-23T02:04:35;21.80;99.90
8664;DHT22;4369;47.842;13.096;2022-07-23T02:07:03;21.70;99.90
8664;DHT22;4369;47.842;13.096;2022-07-23T02:09:30;21.80;99.90
8664;DHT22;4369;47.842;13.096;2022-07-23T02:11:57;21.80;99.90
8664;DHT22;4369;47.842;13.096;2022-07-23T02:14:26;21.80;99.90
8664;DHT22;4369;47.842;13.096;2022-07-23T02:16:53;21.80;99.90
8664;DHT22;4369;47.842;13.096;2022-07-23T02:19:20;21.80;99.90
8664;DHT22;4369;47.842;13.096;2022-07-23T02:21:46;21.70;99.90
8664;DHT22;4369;47.842;13.096;2022-07-23T02:24:13;21.70;99.90
8664;DHT22;4369;47.842;13.096;2022-07-23T02:26:40;21.70;99.90
8664;DHT22;4369;47.842;13.096;2022-07-23T02:29:07;21.70;99.90
8664;DHT22;4369;47.842;13.096;2022-07-23T02:31:35;21.70;99.90
8664;DHT22;4369;47.842;13.096;2022-07-23T02:34:02;21.70;99.90
8664;DHT22;4369;47.842;13.096;2022-07-23T02:36:30;21.70;99.90
8664;DHT22;4369;47.842;13.096;2022-07-23T02:38:57;21.70;99.90
8664;DHT22;4369;47.842;13.096;2022-07-23T02:41:24;21.70;99.90
8664;DHT22;4369;47.842;13.096;2022-07-23T02:43:51;21.60;99.90
8664;DHT22;4369;47.842;13.096;2022-07-23T02:46:17;21.60;99.90
8664;DHT22;4369;47.842;13.096;2022-07-23T02:48:45;21.50;99.90
8664;DHT22;4369;47.842;13.096;2022-07-23T02:51:12;21.40;99.90
8664;DHT22;4369;47.842;13.096;2022-07-23T02:53:39;21.40;99.90
8664;DHT22;4369;47.842;13.096;2022-07-23T02:56:06;21.40;99.90
8664;DHT22;4369;47.842;13.096;2022-07-23T02:58:33;21.20;99.90
8664;DHT22;4369;47.842;13.096;2022-07-23T03:01:00;21.20;99.90
8664;DHT22;4369;47.842;13.096;2022-07-23T03:03:27;21.30;99.90
8664;DHT22;4369;47.842;13.096;2022-07-23T03:05:55;21.40;99.90
8664;DHT22;4369;47.842;13.096;2022-07-23T03:08:22;21.50;99.90
8664;DHT22;4369;47.842;13.096;2022-07-23T03:10:49;21.50;99.90
8664;DHT22;4369;47.842;13.096;2022-07-23T03:13:16;21.50;99.90
8664;DHT22;4369;47.842;13.096;2022-07-23T03:15:43;21.40;99.90
8664;DHT22;4369;47.842;13.096;2022-07-23T03:18:09;21.40;99.90
8664;DHT22;4369;47.842;13.096;2022-07-23T03:20:36;21.30;99.90
8664;DHT22;4369;47.842;13.096;2022-07-23T03:23:05;21.30;99.90
8664;DHT22;4369;47.842;13.096;2022-07-23T03:25:32;21.30;99.90
8664;DHT22;4369;47.842;13.096;2022-07-23T03:27:58;21.30;99.90
8664;DHT22;4369;47.842;13.096;2022-07-23T03:30:25;21.20;99.90
8664;DHT22;4369;47.842;13.096;2022-07-23T03:32:52;21.20;99.90
8664;DHT22;4369;47.842;13.096;2022-07-23T03:35:19;21.20;99.90
8664;DHT22;4369;47.842;13.096;2022-07-23T03:37:46;21.20;99.90
8664;DHT22;4369;47.842;13.096;2022-07-23T03:40:14;21.20;99.90
8664;DHT22;4369;47.842;13.096;2022-07-23T03:42:41;21.20;99.90
8664;DHT22;4369;47.842;13.096;2022-07-23T03:45:09;21.20;99.90
8664;DHT22;4369;47.842;13.096;2022-07-23T03:47:37;21.20;99.90
8664;DHT22;4369;47.842;13.096;2022-07-23T03:50:05;21.20;99.90
8664;DHT22;4369;47.842;13.096;2022-07-23T03:52:32;21.20;99.90
8664;DHT22;4369;47.842;13.096;2022-07-23T03:54:59;21.20;99.90
8664;DHT22;4369;47.842;13.096;2022-07-23T03:57:27;21.30;99.90
8664;DHT22;4369;47.842;13.096;2022-07-23T03:59:54;21.40;99.90
8664;DHT22;4369;47.842;13.096;2022-07-23T04:02:20;21.40;99.90
8664;DHT22;4369;47.842;13.096;2022-07-23T04:04:47;21.40;99.90
8664;DHT22;4369;47.842;13.096;2022-07-23T04:07:14;21.50;99.90
8664;DHT22;4369;47.842;13.096;2022-07-23T04:09:43;21.60;99.90
8664;DHT22;4369;47.842;13.096;2022-07-23T04:12:10;21.60;99.90
8664;DHT22;4369;47.842;13.096;2022-07-23T04:14:38;21.70;99.90
8664;DHT22;4369;47.842;13.096;2022-07-23T04:17:05;21.70;99.90
8664;DHT22;4369;47.842;13.096;2022-07-23T04:19:32;21.70;99.90
8664;DHT22;4369;47.842;13.096;2022-07-23T04:21:59;21.70;99.90
8664;DHT22;4369;47.842;13.096;2022-07-23T04:24:25;21.70;99.90
8664;DHT22;4369;47.842;13.096;2022-07-23T04:26:52;21.80;99.90
8664;DHT22;4369;47.842;13.096;2022-07-23T04:29:19;21.80;99.90
8664;DHT22;4369;47.842;13.096;2022-07-23T04:31:47;21.90;99.90
8664;DHT22;4369;47.842;13.096;2022-07-23T04:34:14;21.90;99.90
8664;DHT22;4369;47.842;13.096;2022-07-23T04:36:41;21.90;99.90
8664;DHT22;4369;47.842;13.096;2022-07-23T04:39:08;22.00;99.90
8664;DHT22;4369;47.842;13.096;2022-07-23T04:41:35;22.00;99.90
8664;DHT22;4369;47.842;13.096;2022-07-23T04:44:02;22.10;99.90
8664;DHT22;4369;47.842;13.096;2022-07-23T04:46:29;22.10;99.90
8664;DHT22;4369;47.842;13.096;2022-07-23T04:48:57;22.20;99.90
8664;DHT22;4369;47.842;13.096;2022-07-23T04:51:24;22.20;99.90
8664;DHT22;4369;47.842;13.096;2022-07-23T04:53:51;22.30;99.90
8664;DHT22;4369;47.842;13.096;2022-07-23T04:56:18;22.30;99.90
8664;DHT22;4369;47.842;13.096;2022-07-23T04:58:45;22.30;99.90
8664;DHT22;4369;47.842;13.096;2022-07-23T05:01:12;22.40;99.90
8664;DHT22;4369;47.842;13.096;2022-07-23T05:03:39;22.40;99.90
8664;DHT22;4369;47.842;13.096;2022-07-23T05:06:07;22.30;99.90
8664;DHT22;4369;47.842;13.096;2022-07-23T05:08:34;22.30;99.90
8664;DHT22;4369;47.842;13.096;2022-07-23T05:11:01;22.30;99.90
8664;DHT22;4369;47.842;13.096;2022-07-23T05:13:28;22.20;99.90
8664;DHT22;4369;47.842;13.096;2022-07-23T05:15:55;22.20;99.90
8664;DHT22;4369;47.842;13.096;2022-07-23T05:18:22;22.20;99.90
8664;DHT22;4369;47.842;13.096;2022-07-23T05:20:49;22.20;99.90
8664;DHT22;4369;47.842;13.096;2022-07-23T05:23:17;22.30;99.90
8664;DHT22;4369;47.842;13.096;2022-07-23T05:25:44;22.40;99.90
8664;DHT22;4369;47.842;13.096;2022-07-23T05:28:10;22.50;99.90
8664;DHT22;4369;47.842;13.096;2022-07-23T05:30:37;22.60;99.90
8664;DHT22;4369;47.842;13.096;2022-07-23T05:33:04;22.70;99.90
8664;DHT22;4369;47.842;13.096;2022-07-23T05:35:33;22.80;99.90
8664;DHT22;4369;47.842;13.096;2022-07-23T05:37:59;22.90;99.90
8664;DHT22;4369;47.842;13.096;2022-07-23T05:40:28;23.10;99.90
8664;DHT22;4369;47.842;13.096;2022-07-23T05:42:55;23.10;99.90
8664;DHT22;4369;47.842;13.096;2022-07-23T05:45:21;23.10;99.90
8664;DHT22;4369;47.842;13.096;2022-07-23T05:47:49;23.10;99.90
8664;DHT22;4369;47.842;13.096;2022-07-23T05:50:16;23.10;99.90
8664;DHT22;4369;47.842;13.096;2022-07-23T05:52:44;23.00;99.90
8664;DHT22;4369;47.842;13.096;2022-07-23T05:55:11;23.10;99.90
8664;DHT22;4369;47.842;13.096;2022-07-23T05:57:40;23.10;99.90
8664;DHT22;4369;47.842;13.096;2022-07-23T06:00:09;23.20;99.90
8664;DHT22;4369;47.842;13.096;2022-07-23T06:02:37;23.30;99.90
8664;DHT22;4369;47.842;13.096;2022-07-23T06:05:06;23.40;99.90
8664;DHT22;4369;47.842;13.096;2022-07-23T06:07:35;23.40;99.90
8664;DHT22;4369;47.842;13.096;2022-07-23T06:10:02;23.40;99.90
8664;DHT22;4369;47.842;13.096;2022-07-23T06:12:29;23.40;99.90
8664;DHT22;4369;47.842;13.096;2022-07-23T06:14:58;23.30;99.90
8664;DHT22;4369;47.842;13.096;2022-07-23T06:17:26;23.40;99.90
8664;DHT22;4369;47.842;13.096;2022-07-23T06:19:54;23.30;99.90
8664;DHT22;4369;47.842;13.096;2022-07-23T06:22:21;23.20;99.90
8664;DHT22;4369;47.842;13.096;2022-07-23T06:24:48;23.10;99.90
8664;DHT22;4369;47.842;13.096;2022-07-23T06:27:16;23.00;99.90
8664;DHT22;4369;47.842;13.096;2022-07-23T06:29:43;23.00;99.90
8664;DHT22;4369;47.842;13.096;2022-07-23T06:32:11;23.10;99.90
8664;DHT22;4369;47.842;13.096;2022-07-23T06:34:38;23.10;99.90
8664;DHT22;4369;47.842;13.096;2022-07-23T06:37:05;23.00;99.90
8664;DHT22;4369;47.842;13.096;2022-07-23T06:39:32;22.90;99.90
8664;DHT22;4369;47.842;13.096;2022-07-23T06:41:58;22.80;99.90
8664;DHT22;4369;47.842;13.096;2022-07-23T06:44:26;22.80;99.90
8664;DHT22;4369;47.842;13.096;2022-07-23T06:46:53;22.90;99.90
8664;DHT22;4369;47.842;13.096;2022-07-23T06:49:21;23.00;99.90
8664;DHT22;4369;47.842;13.096;2022-07-23T06:51:48;23.00;99.90
8664;DHT22;4369;47.842;13.096;2022-07-23T06:54:15;23.00;99.90
8664;DHT22;4369;47.842;13.096;2022-07-23T06:56:42;22.90;99.90
8664;DHT22;4369;47.842;13.096;2022-07-23T06:59:09;23.00;99.90
8664;DHT22;4369;47.842;13.096;2022-07-23T07:01:36;22.90;99.90
8664;DHT22;4369;47.842;13.096;2022-07-23T07:04:03;23.00;99.90
8664;DHT22;4369;47.842;13.096;2022-07-23T07:06:31;23.10;99.90
8664;DHT22;4369;47.842;13.096;2022-07-23T07:08:58;23.20;99.90
8664;DHT22;4369;47.842;13.096;2022-07-23T07:11:25;23.10;99.90
8664;DHT22;4369;47.842;13.096;2022-07-23T07:13:52;23.20;99.90
8664;DHT22;4369;47.842;13.096;2022-07-23T07:16:19;23.20;99.90
8664;DHT22;4369;47.842;13.096;2022-07-23T07:18:46;23.20;99.90
8664;DHT22;4369;47.842;13.096;2022-07-23T07:21:12;23.30;99.90
8664;DHT22;4369;47.842;13.096;2022-07-23T07:23:41;23.30;99.90
8664;DHT22;4369;47.842;13.096;2022-07-23T07:26:08;23.50;99.90
8664;DHT22;4369;47.842;13.096;2022-07-23T07:28:34;23.60;99.90
8664;DHT22;4369;47.842;13.096;2022-07-23T07:31:01;23.70;99.90
8664;DHT22;4369;47.842;13.096;2022-07-23T07:33:29;23.80;99.90
8664;DHT22;4369;47.842;13.096;2022-07-23T07:35:57;23.80;99.90
8664;DHT22;4369;47.842;13.096;2022-07-23T07:38:26;23.80;99.90
8664;DHT22;4369;47.842;13.096;2022-07-23T07:40:54;23.80;99.90
8664;DHT22;4369;47.842;13.096;2022-07-23T07:43:21;24.00;99.90
8664;DHT22;4369;47.842;13.096;2022-07-23T07:45:48;24.00;99.90
8664;DHT22;4369;47.842;13.096;2022-07-23T07:48:14;23.80;99.90
8664;DHT22;4369;47.842;13.096;2022-07-23T07:50:41;23.80;99.90
8664;DHT22;4369;47.842;13.096;2022-07-23T07:53:09;23.80;99.90
8664;DHT22;4369;47.842;13.096;2022-07-23T07:55:36;23.90;99.90
8664;DHT22;4369;47.842;13.096;2022-07-23T07:58:04;23.90;99.90
8664;DHT22;4369;47.842;13.096;2022-07-23T08:00:31;23.90;99.90
8664;DHT22;4369;47.842;13.096;2022-07-23T08:02:58;23.80;99.90
8664;DHT22;4369;47.842;13.096;2022-07-23T08:05:27;23.70;99.90
8664;DHT22;4369;47.842;13.096;2022-07-23T08:07:54;23.70;99.90
8664;DHT22;4369;47.842;13.096;2022-07-23T08:10:22;23.70;99.90
8664;DHT22;4369;47.842;13.096;2022-07-23T08:12:51;23.70;99.90
8664;DHT22;4369;47.842;13.096;2022-07-23T08:15:21;23.60;99.90
8664;DHT22;4369;47.842;13.096;2022-07-23T08:17:49;23.60;99.90
8664;DHT22;4369;47.842;13.096;2022-07-23T08:20:18;23.60;99.90
8664;DHT22;4369;47.842;13.096;2022-07-23T08:22:48;23.50;99.90
8664;DHT22;4369;47.842;13.096;2022-07-23T08:25:16;23.50;99.90
8664;DHT22;4369;47.842;13.096;2022-07-23T08:27:42;23.30;99.90
8664;DHT22;4369;47.842;13.096;2022-07-23T08:30:10;23.30;99.90
8664;DHT22;4369;47.842;13.096;2022-07-23T08:32:53;23.40;99.90
8664;DHT22;4369;47.842;13.096;2022-07-23T08:35:25;23.50;99.90
8664;DHT22;4369;47.842;13.096;2022-07-23T08:37:52;23.50;99.90
8664;DHT22;4369;47.842;13.096;2022-07-23T08:40:20;23.60;99.90
8664;DHT22;4369;47.842;13.096;2022-07-23T08:42:48;23.70;99.90
8664;DHT22;4369;47.842;13.096;2022-07-23T08:45:17;23.80;99.90
8664;DHT22;4369;47.842;13.096;2022-07-23T08:47:48;23.90;99.90
8664;DHT22;4369;47.842;13.096;2022-07-23T08:50:16;24.00;99.90
8664;DHT22;4369;47.842;13.096;2022-07-23T08:52:44;24.10;99.90
8664;DHT22;4369;47.842;13.096;2022-07-23T08:55:11;24.40;99.90
8664;DHT22;4369;47.842;13.096;2022-07-23T08:57:38;24.40;99.90
8664;DHT22;4369;47.842;13.096;2022-07-23T09:00:06;24.60;99.90
8664;DHT22;4369;47.842;13.096;2022-07-23T09:02:39;24.90;99.90
8664;DHT22;4369;47.842;13.096;2022-07-23T09:05:07;25.00;99.90
8664;DHT22;4369;47.842;13.096;2022-07-23T09:07:35;25.10;99.90
8664;DHT22;4369;47.842;13.096;2022-07-23T09:10:08;25.20;99.90
8664;DHT22;4369;47.842;13.096;2022-07-23T09:12:35;25.40;99.90
8664;DHT22;4369;47.842;13.096;2022-07-23T09:15:07;25.60;99.60
8664;DHT22;4369;47.842;13.096;2022-07-23T09:17:40;25.60;98.70
8664;DHT22;4369;47.842;13.096;2022-07-23T09:20:09;25.80;99.00
8664;DHT22;4369;47.842;13.096;2022-07-23T09:22:38;26.10;99.90
8664;DHT22;4369;47.842;13.096;2022-07-23T09:25:09;26.40;98.50
8664;DHT22;4369;47.842;13.096;2022-07-23T09:27:51;26.90;98.80
8664;DHT22;4369;47.842;13.096;2022-07-23T09:30:20;27.20;97.00
8664;DHT22;4369;47.842;13.096;2022-07-23T09:33:05;27.40;98.00
8664;DHT22;4369;47.842;13.096;2022-07-23T09:35:49;27.40;92.70
8664;DHT22;4369;47.842;13.096;2022-07-23T09:38:19;27.00;91.80
8664;DHT22;4369;47.842;13.096;2022-07-23T09:40:47;27.00;97.30
8664;DHT22;4369;47.842;13.096;2022-07-23T09:43:31;26.90;99.10
8664;DHT22;4369;47.842;13.096;2022-07-23T09:46:16;27.00;99.40
8664;DHT22;4369;47.842;13.096;2022-07-23T09:48:43;27.00;99.10
8664;DHT22;4369;47.842;13.096;2022-07-23T09:51:09;26.90;96.10
8664;DHT22;4369;47.842;13.096;2022-07-23T09:53:38;26.90;99.90
8664;DHT22;4369;47.842;13.096;2022-07-23T09:56:06;26.70;99.10
8664;DHT22;4369;47.842;13.096;2022-07-23T09:58:36;26.50;97.50
8664;DHT22;4369;47.842;13.096;2022-07-23T10:01:12;26.40;98.40
8664;DHT22;4369;47.842;13.096;2022-07-23T10:03:40;26.20;99.60
8664;DHT22;4369;47.842;13.096;2022-07-23T10:06:08;26.20;98.00
8664;DHT22;4369;47.842;13.096;2022-07-23T10:08:37;26.30;99.90
8664;DHT22;4369;47.842;13.096;2022-07-23T10:11:07;26.40;99.90
8664;DHT22;4369;47.842;13.096;2022-07-23T10:13:35;26.40;99.90
8664;DHT22;4369;47.842;13.096;2022-07-23T10:16:19;26.50;99.90
8664;DHT22;4369;47.842;13.096;2022-07-23T10:18:46;26.50;98.90
8664;DHT22;4369;47.842;13.096;2022-07-23T10:21:18;26.40;98.30
8664;DHT22;4369;47.842;13.096;2022-07-23T10:24:04;26.40;99.90
8664;DHT22;4369;47.842;13.096;2022-07-23T10:26:38;26.50;99.90
8664;DHT22;4369;47.842;13.096;2022-07-23T10:29:17;26.50;98.80
8664;DHT22;4369;47.842;13.096;2022-07-23T10:31:54;26.50;96.50
8664;DHT22;4369;47.842;13.096;2022-07-23T10:34:29;26.60;96.40
8664;DHT22;4369;47.842;13.096;2022-07-23T10:37:01;26.60;93.40
8664;DHT22;4369;47.842;13.096;2022-07-23T10:39:34;26.60;96.20
8664;DHT22;4369;47.842;13.096;2022-07-23T10:42:09;26.90;95.80
8664;DHT22;4369;47.842;13.096;2022-07-23T10:44:41;27.30;94.60
8664;DHT22;4369;47.842;13.096;2022-07-23T10:47:10;27.40;93.90
8664;DHT22;4369;47.842;13.096;2022-07-23T10:50:18;27.70;95.10
8664;DHT22;4369;47.842;13.096;2022-07-23T10:53:07;27.90;91.00
8664;DHT22;4369;47.842;13.096;2022-07-23T10:55:52;28.20;90.60
8664;DHT22;4369;47.842;13.096;2022-07-23T10:58:22;28.30;90.40
8664;DHT22;4369;47.842;13.096;2022-07-23T11:00:49;28.30;90.30
8664;DHT22;4369;47.842;13.096;2022-07-23T11:03:33;27.90;90.20
8664;DHT22;4369;47.842;13.096;2022-07-23T11:06:02;27.80;91.20
8664;DHT22;4369;47.842;13.096;2022-07-23T11:08:29;28.20;92.30
8664;DHT22;4369;47.842;13.096;2022-07-23T11:11:09;28.80;90.90
8664;DHT22;4369;47.842;13.096;2022-07-23T11:13:45;28.90;90.60
8664;DHT22;4369;47.842;13.096;2022-07-23T11:16:14;29.30;89.90
8664;DHT22;4369;47.842;13.096;2022-07-23T11:21:51;29.70;84.40
8664;DHT22;4369;47.842;13.096;2022-07-23T11:24:20;29.80;84.20
8664;DHT22;4369;47.842;13.096;2022-07-23T11:26:59;29.80;83.40
8664;DHT22;4369;47.842;13.096;2022-07-23T11:29:47;29.60;82.90
8664;DHT22;4369;47.842;13.096;2022-07-23T11:32:37;29.80;81.40
8664;DHT22;4369;47.842;13.096;2022-07-23T11:35:23;30.20;79.60
8664;DHT22;4369;47.842;13.096;2022-07-23T11:37:51;30.40;75.10
8664;DHT22;4369;47.842;13.096;2022-07-23T11:40:24;30.60;77.70
8664;DHT22;4369;47.842;13.096;2022-07-23T11:42:55;30.50;76.90
8664;DHT22;4369;47.842;13.096;2022-07-23T11:45:23;30.20;74.50
8664;DHT22;4369;47.842;13.096;2022-07-23T11:47:51;30.40;75.60
8664;DHT22;4369;47.842;13.096;2022-07-23T11:50:17;30.10;76.60
8664;DHT22;4369;47.842;13.096;2022-07-23T11:52:44;29.90;80.00
8664;DHT22;4369;47.842;13.096;2022-07-23T11:55:12;29.70;81.40
8664;DHT22;4369;47.842;13.096;2022-07-23T11:57:42;29.70;83.70
8664;DHT22;4369;47.842;13.096;2022-07-23T12:00:13;30.00;86.50
8664;DHT22;4369;47.842;13.096;2022-07-23T12:02:42;30.10;82.30
8664;DHT22;4369;47.842;13.096;2022-07-23T12:05:12;30.40;82.10
8664;DHT22;4369;47.842;13.096;2022-07-23T12:07:41;30.40;76.30
8664;DHT22;4369;47.842;13.096;2022-07-23T12:10:12;30.40;82.40
8664;DHT22;4369;47.842;13.096;2022-07-23T12:12:41;30.60;73.80
8664;DHT22;4369;47.842;13.096;2022-07-23T12:15:11;30.90;75.90
8664;DHT22;4369;47.842;13.096;2022-07-23T12:17:40;31.30;77.60
8664;DHT22;4369;47.842;13.096;2022-07-23T12:20:09;32.10;73.30
8664;DHT22;4369;47.842;13.096;2022-07-23T12:22:39;32.30;64.40
8664;DHT22;4369;47.842;13.096;2022-07-23T12:25:09;31.90;68.50
8664;DHT22;4369;47.842;13.096;2022-07-23T12:27:37;31.90;72.60
8664;DHT22;4369;47.842;13.096;2022-07-23T12:30:22;32.20;73.20
8664;DHT22;4369;47.842;13.096;2022-07-23T12:32:51;32.30;66.90
8664;DHT22;4369;47.842;13.096;2022-07-23T12:35:19;32.30;66.10
8664;DHT22;4369;47.842;13.096;2022-07-23T12:37:51;32.40;63.60
8664;DHT22;4369;47.842;13.096;2022-07-23T12:40:28;32.80;64.70
8664;DHT22;4369;47.842;13.096;2022-07-23T12:42:59;33.30;64.20
8664;DHT22;4369;47.842;13.096;2022-07-23T12:45:41;33.50;59.80
8664;DHT22;4369;47.842;13.096;2022-07-23T12:48:14;33.00;56.60
8664;DHT22;4369;47.842;13.096;2022-07-23T12:50:44;33.00;59.90
8664;DHT22;4369;47.842;13.096;2022-07-23T12:53:16;33.10;62.30
8664;DHT22;4369;47.842;13.096;2022-07-23T12:55:44;33.00;60.20
8664;DHT22;4369;47.842;13.096;2022-07-23T12:58:14;32.70;59.80
8664;DHT22;4369;47.842;13.096;2022-07-23T13:01:07;32.90;63.50
8664;DHT22;4369;47.842;13.096;2022-07-23T13:03:36;32.30;63.30
8664;DHT22;4369;47.842;13.096;2022-07-23T13:06:05;32.10;64.30
8664;DHT22;4369;47.842;13.096;2022-07-23T13:09:00;31.40;64.80
8664;DHT22;4369;47.842;13.096;2022-07-23T13:11:53;31.10;68.70
8664;DHT22;4369;47.842;13.096;2022-07-23T13:14:21;30.60;65.80
8664;DHT22;4369;47.842;13.096;2022-07-23T13:16:51;30.40;66.90
8664;DHT22;4369;47.842;13.096;2022-07-23T13:19:19;30.20;67.70
8664;DHT22;4369;47.842;13.096;2022-07-23T13:21:47;30.50;75.00
8664;DHT22;4369;47.842;13.096;2022-07-23T13:24:14;30.90;65.80
8664;DHT22;4369;47.842;13.096;2022-07-23T13:26:42;31.10;69.60
8664;DHT22;4369;47.842;13.096;2022-07-23T13:29:17;31.50;66.10
8664;DHT22;4369;47.842;13.096;2022-07-23T13:31:44;31.60;65.70
8664;DHT22;4369;47.842;13.096;2022-07-23T13:34:12;31.60;65.50
8664;DHT22;4369;47.842;13.096;2022-07-23T13:36:40;31.60;69.50
8664;DHT22;4369;47.842;13.096;2022-07-23T13:39:08;31.90;69.60
8664;DHT22;4369;47.842;13.096;2022-07-23T13:41:36;31.80;69.10
8664;DHT22;4369;47.842;13.096;2022-07-23T13:44:03;31.90;65.40
8664;DHT22;4369;47.842;13.096;2022-07-23T13:46:30;32.20;67.50
8664;DHT22;4369;47.842;13.096;2022-07-23T13:48:57;32.40;62.80
8664;DHT22;4369;47.842;13.096;2022-07-23T13:51:25;32.70;61.20
8664;DHT22;4369;47.842;13.096;2022-07-23T13:53:52;32.90;59.70
8664;DHT22;4369;47.842;13.096;2022-07-23T13:56:20;32.50;58.80
8664;DHT22;4369;47.842;13.096;2022-07-23T13:58:46;32.00;59.50
8664;DHT22;4369;47.842;13.096;2022-07-23T14:01:13;31.50;65.00
8664;DHT22;4369;47.842;13.096;2022-07-23T14:03:40;31.60;66.00
8664;DHT22;4369;47.842;13.096;2022-07-23T14:06:07;31.70;66.80
8664;DHT22;4369;47.842;13.096;2022-07-23T14:08:35;31.60;63.60
8664;DHT22;4369;47.842;13.096;2022-07-23T14:11:02;32.10;63.60
8664;DHT22;4369;47.842;13.096;2022-07-23T14:13:29;32.40;63.00
8664;DHT22;4369;47.842;13.096;2022-07-23T14:15:56;32.60;62.60
8664;DHT22;4369;47.842;13.096;2022-07-23T14:18:23;33.30;58.90
8664;DHT22;4369;47.842;13.096;2022-07-23T14:20:49;33.40;59.00
8664;DHT22;4369;47.842;13.096;2022-07-23T14:23:16;32.40;60.20
8664;DHT22;4369;47.842;13.096;2022-07-23T14:25:44;31.70;60.00
8664;DHT22;4369;47.842;13.096;2022-07-23T14:28:11;31.00;64.10
8664;DHT22;4369;47.842;13.096;2022-07-23T14:30:38;30.70;65.30
8664;DHT22;4369;47.842;13.096;2022-07-23T14:33:05;30.60;66.30
8664;DHT22;4369;47.842;13.096;2022-07-23T14:35:32;30.60;64.20
8664;DHT22;4369;47.842;13.096;2022-07-23T14:37:59;30.50;66.50
8664;DHT22;4369;47.842;13.096;2022-07-23T14:40:25;30.10;67.30
8664;DHT22;4369;47.842;13.096;2022-07-23T14:42:54;29.80;69.80
8664;DHT22;4369;47.842;13.096;2022-07-23T14:45:21;29.60;65.90
8664;DHT22;4369;47.842;13.096;2022-07-23T14:47:47;29.30;67.30
8664;DHT22;4369;47.842;13.096;2022-07-23T14:50:16;29.90;66.20
8664;DHT22;4369;47.842;13.096;2022-07-23T14:52:43;30.90;61.20
8664;DHT22;4369;47.842;13.096;2022-07-23T14:55:10;32.70;57.80
8664;DHT22;4369;47.842;13.096;2022-07-23T14:57:37;33.80;57.20
8664;DHT22;4369;47.842;13.096;2022-07-23T15:00:07;34.30;53.70
8664;DHT22;4369;47.842;13.096;2022-07-23T15:02:34;34.20;53.60
8664;DHT22;4369;47.842;13.096;2022-07-23T15:05:00;34.50;52.90
8664;DHT22;4369;47.842;13.096;2022-07-23T15:07:28;34.70;51.70
8664;DHT22;4369;47.842;13.096;2022-07-23T15:09:55;34.50;54.50
8664;DHT22;4369;47.842;13.096;2022-07-23T15:12:22;34.30;53.90
8664;DHT22;4369;47.842;13.096;2022-07-23T15:14:49;34.20;53.80
8664;DHT22;4369;47.842;13.096;2022-07-23T15:17:17;33.70;54.00
8664;DHT22;4369;47.842;13.096;2022-07-23T15:19:44;33.10;54.90
8664;DHT22;4369;47.842;13.096;2022-07-23T15:22:11;33.70;55.20
8664;DHT22;4369;47.842;13.096;2022-07-23T15:24:38;34.10;55.60
8664;DHT22;4369;47.842;13.096;2022-07-23T15:27:05;34.10;55.40
8664;DHT22;4369;47.842;13.096;2022-07-23T15:29:32;33.70;57.10
8664;DHT22;4369;47.842;13.096;2022-07-23T15:31:58;33.10;55.80
8664;DHT22;4369;47.842;13.096;2022-07-23T15:34:28;33.10;56.70
8664;DHT22;4369;47.842;13.096;2022-07-23T15:36:55;33.00;56.70
8664;DHT22;4369;47.842;13.096;2022-07-23T15:39:22;32.80;56.70
8664;DHT22;4369;47.842;13.096;2022-07-23T15:41:49;32.30;58.60
8664;DHT22;4369;47.842;13.096;2022-07-23T15:44:16;31.70;58.90
8664;DHT22;4369;47.842;13.096;2022-07-23T15:46:43;31.30;59.30
8664;DHT22;4369;47.842;13.096;2022-07-23T15:49:10;30.90;62.10
8664;DHT22;4369;47.842;13.096;2022-07-23T15:51:38;30.70;62.60
8664;DHT22;4369;47.842;13.096;2022-07-23T15:54:05;30.40;64.00
8664;DHT22;4369;47.842;13.096;2022-07-23T15:56:31;30.50;66.90
8664;DHT22;4369;47.842;13.096;2022-07-23T15:58:58;30.20;64.70